createdAt,value
2023-04-18T00:01:13.133Z,100293.88
2023-04-18T00:03:39.917Z,100288.31
2023-04-18T00:06:06.719Z,100293.75
2023-04-18T00:08:33.701Z,100285.41
2023-04-18T00:11:00.245Z,100296.22
2023-04-18T00:13:26.746Z,100292.63
2023-04-18T00:15:53.313Z,100296.50
2023-04-18T00:18:20.197Z,100288.19
2023-04-18T00:20:46.867Z,100302.59
2023-04-18T00:23:13.598Z,100298.69
2023-04-18T00:25:41.258Z,100300.31
2023-04-18T00:28:07.932Z,100292.91
2023-04-18T00:30:34.496Z,100296.66
2023-04-18T00:33:01.376Z,100283.47
2023-04-18T00:35:28.122Z,100297.47
2023-04-18T00:37:54.652Z,100295.00
2023-04-18T00:40:21.194Z,100298.91
2023-04-18T00:42:47.808Z,100291.09
2023-04-18T00:45:14.474Z,100295.22
2023-04-18T00:47:41.227Z,100297.66
2023-04-18T00:50:09.543Z,100296.50
2023-04-18T00:52:36.812Z,100301.78
2023-04-18T00:55:07.105Z,100301.78
2023-04-18T00:57:34.398Z,100308.94
2023-04-18T01:00:01.957Z,100306.50
2023-04-18T01:02:28.744Z,100301.97
2023-04-18T01:04:55.382Z,100293.16
2023-04-18T01:07:22.331Z,100296.13
2023-04-18T01:09:48.969Z,100290.22
2023-04-18T01:12:15.477Z,100295.41
2023-04-18T01:14:42.345Z,100292.00
2023-04-18T01:17:08.886Z,100297.03
2023-04-18T01:19:35.475Z,100297.66
2023-04-18T01:22:02.022Z,100301.97
2023-04-18T01:24:28.651Z,100301.16
2023-04-18T01:26:55.401Z,100298.50
2023-04-18T01:29:21.990Z,100306.31
2023-04-18T01:31:48.588Z,100301.88
2023-04-18T01:34:15.484Z,100295.31
2023-04-18T01:36:42.176Z,100298.19
2023-04-18T01:39:08.810Z,100312.06
2023-04-18T01:41:35.525Z,100312.06
2023-04-18T01:44:02.348Z,100304.06
2023-04-18T01:46:29.288Z,100299.13
2023-04-18T01:48:57.056Z,100298.28
2023-04-18T01:51:23.709Z,100302.22
2023-04-18T01:53:50.552Z,100300.59
2023-04-18T01:56:17.237Z,100306.75
2023-04-18T01:58:43.912Z,100303.44
2023-04-18T02:01:10.612Z,100307.34
2023-04-18T02:03:37.504Z,100303.44
2023-04-18T02:06:05.065Z,100303.44
2023-04-18T02:08:32.052Z,100302.84
2023-04-18T02:10:59.190Z,100301.69
2023-04-18T02:13:25.742Z,100300.97
2023-04-18T02:15:52.279Z,100310.25
2023-04-18T02:18:18.888Z,100305.50
2023-04-18T02:20:45.482Z,100308.91
2023-04-18T02:23:12.129Z,100304.25
2023-04-18T02:25:38.662Z,100312.38
2023-04-18T02:28:05.192Z,100305.91
2023-04-18T02:30:31.835Z,100312.78
2023-04-18T02:32:58.403Z,100315.56
2023-04-18T02:35:26.070Z,100310.31
2023-04-18T02:37:52.585Z,100316.75
2023-04-18T02:40:19.498Z,100314.00
2023-04-18T02:42:46.016Z,100303.03
2023-04-18T02:45:12.579Z,100308.03
2023-04-18T02:47:51.285Z,100303.41
2023-04-18T02:50:20.774Z,100310.63
2023-04-18T02:52:47.524Z,100315.09
2023-04-18T02:55:14.137Z,100313.25
2023-04-18T02:57:40.713Z,100316.03
2023-04-18T03:00:07.752Z,100312.81
2023-04-18T03:02:34.416Z,100311.56
2023-04-18T03:05:01.086Z,100319.59
2023-04-18T03:07:27.659Z,100322.44
2023-04-18T03:09:54.185Z,100314.22
2023-04-18T03:12:20.757Z,100317.06
2023-04-18T03:14:47.393Z,100315.13
2023-04-18T03:17:14.212Z,100315.63
2023-04-18T03:19:40.827Z,100316.03
2023-04-18T03:22:07.345Z,100317.25
2023-04-18T03:24:33.903Z,100328.31
2023-04-18T03:27:00.626Z,100310.66
2023-04-18T03:29:27.350Z,100320.63
2023-04-18T03:31:53.943Z,100327.78
2023-04-18T03:34:20.489Z,100323.91
2023-04-18T03:36:48.263Z,100324.13
2023-04-18T03:39:15.047Z,100326.97
2023-04-18T03:41:41.742Z,100333.94
2023-04-18T03:44:08.315Z,100328.31
2023-04-18T03:46:35.306Z,100330.03
2023-04-18T03:49:01.909Z,100340.00
2023-04-18T03:51:33.363Z,100333.41
2023-04-18T03:53:59.946Z,100343.66
2023-04-18T03:56:26.634Z,100340.63
2023-04-18T03:58:53.156Z,100350.03
2023-04-18T04:01:19.664Z,100342.84
2023-04-18T04:03:46.410Z,100349.22
2023-04-18T04:06:13.255Z,100349.81
2023-04-18T04:08:39.970Z,100354.16
2023-04-18T04:11:06.523Z,100355.56
2023-04-18T04:13:33.148Z,100353.31
2023-04-18T04:15:59.851Z,100362.00
2023-04-18T04:18:26.520Z,100361.91
2023-04-18T04:20:53.040Z,100361.84
2023-04-18T04:23:19.555Z,100366.63
2023-04-18T04:25:46.108Z,100376.91
2023-04-18T04:28:12.639Z,100372.38
2023-04-18T04:30:39.223Z,100380.69
2023-04-18T04:33:05.843Z,100379.50
2023-04-18T04:35:32.468Z,100381.28
2023-04-18T04:37:59.107Z,100389.22
2023-04-18T04:40:25.699Z,100397.66
2023-04-18T04:42:52.293Z,100394.59
2023-04-18T04:45:18.855Z,100394.63
2023-04-18T04:47:45.908Z,100404.34
2023-04-18T04:50:14.976Z,100404.03
2023-04-18T04:52:44.323Z,100404.06
2023-04-18T04:55:10.885Z,100408.06
2023-04-18T04:57:37.782Z,100402.00
2023-04-18T05:00:04.952Z,100401.13
2023-04-18T05:02:31.580Z,100406.88
2023-04-18T05:04:58.196Z,100408.59
2023-04-18T05:07:25.051Z,100415.56
2023-04-18T05:09:51.690Z,100409.22
2023-04-18T05:12:18.205Z,100414.88
2023-04-18T05:14:44.786Z,100415.19
2023-04-18T05:17:11.402Z,100414.94
2023-04-18T05:19:37.997Z,100425.16
2023-04-18T05:22:04.604Z,100423.91
2023-04-18T10:45:39.257Z,100482.00
2023-04-18T11:05:44.779Z,100478.19
2023-04-18T11:08:26.203Z,100487.75
2023-04-18T11:11:00.333Z,100487.78
2023-04-18T11:13:28.185Z,100474.34
2023-04-18T11:15:54.854Z,100479.44
2023-04-18T11:18:21.403Z,100471.72
2023-04-18T11:20:50.413Z,100476.47
2023-04-18T11:23:18.921Z,100473.69
2023-04-18T11:25:45.738Z,100477.44
2023-04-18T11:28:12.454Z,100472.66
2023-04-18T11:30:40.718Z,100478.06
2023-04-18T11:33:08.922Z,100471.09
2023-04-18T11:35:39.966Z,100481.25
2023-04-18T11:38:07.451Z,100471.53
2023-04-18T11:40:34.543Z,100464.91
2023-04-18T11:43:02.707Z,100472.72
2023-04-18T11:45:29.792Z,100463.59
2023-04-18T11:48:00.833Z,100460.78
2023-04-18T11:50:27.589Z,100463.69
2023-04-18T11:52:56.567Z,100451.44
2023-04-18T11:55:25.149Z,100464.22
2023-04-18T11:57:56.707Z,100461.41
2023-04-18T12:00:33.413Z,100454.81
2023-04-18T12:03:01.296Z,100454.28
2023-04-18T12:05:30.504Z,100448.31
2023-04-18T12:08:08.950Z,100450.38
2023-04-18T12:10:36.086Z,100441.66
2023-04-18T12:13:07.035Z,100447.13
2023-04-18T12:15:43.575Z,100439.28
2023-04-18T12:18:12.672Z,100447.03
2023-04-18T12:20:53.579Z,100443.06
2023-04-18T12:23:40.348Z,100441.81
2023-04-18T12:26:17.235Z,100444.47
2023-04-18T12:28:51.039Z,100430.25
2023-04-18T12:31:17.983Z,100444.06
2023-04-18T12:33:45.268Z,100441.09
2023-04-18T12:36:11.906Z,100440.03
2023-04-18T12:38:38.857Z,100437.78
2023-04-18T12:41:05.463Z,100427.59
2023-04-18T12:43:35.194Z,100434.47
2023-04-18T12:46:02.586Z,100425.97
2023-04-18T12:51:11.662Z,100415.28
2023-04-18T12:53:45.652Z,100425.03
2023-04-18T12:56:12.332Z,100421.78
2023-04-18T12:58:38.931Z,100418.25
2023-04-18T13:01:05.539Z,100415.78
2023-04-18T13:03:32.439Z,100408.81
2023-04-18T13:05:59.315Z,100414.88
2023-04-18T13:08:25.891Z,100405.06
2023-04-18T13:10:53.832Z,100406.28
2023-04-18T13:13:20.447Z,100407.72
2023-04-18T13:15:46.993Z,100415.75
2023-04-18T13:18:13.538Z,100409.41
2023-04-18T13:20:40.161Z,100411.41
2023-04-18T13:23:06.780Z,100413.50
2023-04-18T13:25:33.437Z,100408.34
2023-04-18T13:27:59.936Z,100406.88
2023-04-18T13:30:26.604Z,100397.81
2023-04-18T13:32:53.237Z,100404.34
2023-04-18T13:35:20.438Z,100402.72
2023-04-18T13:37:47.039Z,100413.34
2023-04-18T13:40:13.828Z,100395.13
2023-04-18T13:42:40.407Z,100397.41
2023-04-18T13:45:07.472Z,100391.41
2023-04-18T13:47:34.333Z,100390.78
2023-04-18T13:50:01.073Z,100390.25
2023-04-18T13:52:27.805Z,100388.16
2023-04-18T13:54:54.631Z,100385.47
2023-04-18T13:57:21.335Z,100390.41
2023-04-18T13:59:48.119Z,100395.31
2023-04-18T14:02:14.906Z,100396.81
2023-04-18T14:04:41.712Z,100390.06
2023-04-18T14:07:08.509Z,100393.22
2023-04-18T14:09:35.103Z,100394.72
2023-04-18T14:12:01.818Z,100383.50
2023-04-18T14:14:28.482Z,100389.94
2023-04-18T14:16:55.080Z,100394.34
2023-04-18T14:19:21.620Z,100387.81
2023-04-18T14:21:48.191Z,100395.66
2023-04-18T14:24:14.899Z,100390.53
2023-04-18T14:26:41.775Z,100390.53
2023-04-18T14:29:08.343Z,100389.44
2023-04-18T14:31:34.993Z,100379.41
2023-04-18T14:34:01.599Z,100393.06
2023-04-18T14:36:28.378Z,100382.22
2023-04-18T14:38:54.940Z,100396.81
2023-04-18T14:41:21.633Z,100396.09
2023-04-18T14:43:48.354Z,100393.50
2023-04-18T14:46:15.489Z,100386.31
2023-04-18T14:48:44.053Z,100389.84
2023-04-18T14:51:10.685Z,100393.13
2023-04-18T14:53:37.298Z,100387.19
2023-04-18T14:56:03.971Z,100397.34
2023-04-18T14:58:30.499Z,100397.38
2023-04-18T15:00:57.102Z,100391.44
2023-04-18T15:03:23.942Z,100390.44
2023-04-18T15:05:50.749Z,100392.97
2023-04-18T15:08:17.345Z,100396.59
2023-04-18T15:10:44.009Z,100385.53
2023-04-18T15:13:12.066Z,100390.41
2023-04-18T15:15:38.929Z,100397.91
2023-04-18T15:18:06.956Z,100392.75
2023-04-18T15:20:33.658Z,100389.50
2023-04-18T15:23:00.230Z,100382.00
2023-04-18T15:25:26.826Z,100381.63
2023-04-18T15:27:53.473Z,100389.00
2023-04-18T15:30:20.070Z,100380.22
2023-04-18T15:32:47.882Z,100389.22
2023-04-18T15:35:14.508Z,100404.16
2023-04-18T15:37:41.057Z,100393.97
2023-04-18T15:40:08.341Z,100398.75
2023-04-18T15:42:35.059Z,100398.97
2023-04-18T15:45:01.629Z,100401.38
2023-04-18T15:47:28.287Z,100396.56
2023-04-18T15:49:54.864Z,100400.97
2023-04-18T15:52:21.422Z,100404.53
2023-04-18T15:54:47.986Z,100400.78
2023-04-18T15:57:14.605Z,100411.34
2023-04-18T15:59:41.341Z,100398.69
2023-04-18T16:02:08.923Z,100405.25
2023-04-18T16:04:35.672Z,100401.25
2023-04-18T16:07:02.236Z,100408.06
2023-04-18T16:09:28.755Z,100403.50
2023-04-18T16:11:55.385Z,100413.19
2023-04-18T16:14:21.927Z,100415.00
2023-04-18T16:16:48.513Z,100418.34
2023-04-18T16:19:16.940Z,100416.63
2023-04-18T16:21:43.548Z,100417.59
2023-04-18T16:24:10.074Z,100420.28
2023-04-18T16:26:36.657Z,100425.88
2023-04-18T16:29:03.360Z,100424.78
2023-04-18T16:31:29.976Z,100423.81
2023-04-18T16:33:56.687Z,100419.44
2023-04-18T16:36:23.314Z,100421.88
2023-04-18T16:38:49.878Z,100434.75
2023-04-18T16:41:16.533Z,100433.31
2023-04-18T16:43:43.199Z,100424.63
2023-04-18T16:46:09.772Z,100421.84
2023-04-18T16:48:36.376Z,100422.84
2023-04-18T16:51:02.941Z,100430.22
2023-04-18T16:53:29.467Z,100435.81
2023-04-18T16:55:56.108Z,100435.97
2023-04-18T16:58:22.622Z,100433.53
2023-04-18T17:00:49.382Z,100429.94
2023-04-18T17:03:16.022Z,100438.00
2023-04-18T17:05:42.739Z,100440.50
2023-04-18T17:08:09.288Z,100434.06
2023-04-18T17:10:35.962Z,100443.09
2023-04-18T17:13:03.262Z,100433.09
2023-04-18T17:15:30.002Z,100445.91
2023-04-18T17:17:56.647Z,100438.03
2023-04-18T17:20:23.373Z,100444.47
2023-04-18T17:22:49.941Z,100442.03
2023-04-18T17:25:16.802Z,100438.41
2023-04-18T17:27:43.579Z,100448.44
2023-04-18T17:30:10.804Z,100445.47
2023-04-18T17:32:37.410Z,100453.53
2023-04-18T17:35:04.055Z,100448.25
2023-04-18T17:37:30.978Z,100459.44
2023-04-18T17:39:57.652Z,100455.66
2023-04-18T17:42:24.217Z,100462.41
2023-04-18T17:44:50.787Z,100457.00
2023-04-18T17:47:18.051Z,100458.31
2023-04-18T17:49:44.639Z,100461.09
2023-04-18T17:52:11.183Z,100460.09
2023-04-18T17:54:37.776Z,100468.16
2023-04-18T17:57:04.362Z,100466.50
2023-04-18T17:59:31.180Z,100462.72
2023-04-18T18:01:57.993Z,100469.78
2023-04-18T18:04:26.464Z,100469.13
2023-04-18T18:06:57.958Z,100476.66
2023-04-18T18:09:24.654Z,100475.84
2023-04-18T18:11:52.033Z,100477.13
2023-04-18T18:14:19.495Z,100467.25
2023-04-18T18:16:46.116Z,100474.31
2023-04-18T18:19:12.915Z,100477.28
2023-04-18T18:21:39.636Z,100475.94
2023-04-18T18:24:06.314Z,100471.50
2023-04-18T18:26:35.109Z,100476.25
2023-04-18T18:29:02.771Z,100477.06
2023-04-18T18:31:29.458Z,100472.47
2023-04-18T18:33:56.102Z,100475.72
2023-04-18T18:36:22.625Z,100481.16
2023-04-18T18:38:49.176Z,100466.41
2023-04-18T18:41:15.834Z,100470.66
2023-04-18T18:43:42.330Z,100467.19
2023-04-18T18:46:09.169Z,100466.19
2023-04-18T18:48:35.738Z,100466.66
2023-04-18T18:51:02.270Z,100462.88
2023-04-18T18:53:28.821Z,100472.53
2023-04-18T18:55:55.446Z,100457.94
2023-04-18T18:58:22.125Z,100465.91
2023-04-18T19:00:48.857Z,100473.47
2023-04-18T19:03:15.551Z,100465.22
2023-04-18T19:05:42.105Z,100466.34
2023-04-18T19:08:08.655Z,100469.91
2023-04-18T19:10:35.270Z,100461.03
2023-04-18T19:13:01.842Z,100462.31
2023-04-18T19:15:28.417Z,100468.53
2023-04-18T19:17:55.801Z,100463.59
2023-04-18T19:20:23.341Z,100456.97
2023-04-18T19:22:50.111Z,100454.94
2023-04-18T19:25:16.661Z,100460.19
2023-04-18T19:27:43.363Z,100454.44
2023-04-18T19:30:11.390Z,100452.06
2023-04-18T19:32:38.081Z,100456.66
2023-04-18T19:35:05.169Z,100457.28
2023-04-18T19:37:31.865Z,100458.44
2023-04-18T19:39:58.404Z,100448.34
2023-04-18T19:42:24.960Z,100456.00
2023-04-18T19:44:54.061Z,100448.63
2023-04-18T19:47:20.735Z,100464.69
2023-04-18T19:49:47.396Z,100455.63
2023-04-18T19:52:14.950Z,100451.88
2023-04-18T19:54:41.696Z,100459.75
2023-04-18T19:57:08.263Z,100448.81
2023-04-18T19:59:34.943Z,100442.22
2023-04-18T20:02:04.301Z,100452.34
2023-04-18T20:04:32.415Z,100449.25
2023-04-18T20:06:59.106Z,100452.72
2023-04-18T20:09:25.747Z,100444.50
2023-04-18T20:11:52.293Z,100445.97
2023-04-18T20:14:18.826Z,100448.63
2023-04-18T20:16:45.410Z,100448.00
2023-04-18T20:19:12.929Z,100452.22
2023-04-18T20:21:39.572Z,100450.06
2023-04-18T20:24:06.527Z,100456.28
2023-04-18T20:26:33.351Z,100447.72
2023-04-18T20:28:59.963Z,100450.19
2023-04-18T20:31:26.568Z,100449.84
2023-04-18T20:33:53.070Z,100448.03
2023-04-18T20:36:20.198Z,100446.72
2023-04-18T20:38:46.698Z,100449.31
2023-04-18T20:41:14.300Z,100455.69
2023-04-18T20:43:41.881Z,100458.56
2023-04-18T20:46:08.453Z,100452.19
2023-04-18T20:48:35.021Z,100455.91
2023-04-18T20:51:01.796Z,100451.94
2023-04-18T20:53:28.604Z,100450.38
2023-04-18T20:55:57.274Z,100454.94
2023-04-18T20:58:24.103Z,100459.66
2023-04-18T21:00:52.966Z,100457.19
2023-04-18T21:03:19.804Z,100458.00
2023-04-18T21:05:46.407Z,100451.63
2023-04-18T21:08:12.967Z,100455.56
2023-04-18T21:10:40.003Z,100441.97
2023-04-18T21:13:06.817Z,100446.41
2023-04-18T21:15:35.045Z,100445.59
2023-04-18T21:18:04.742Z,100445.25
2023-04-18T21:20:31.384Z,100442.66
2023-04-18T21:22:58.035Z,100439.19
2023-04-18T21:25:24.559Z,100432.69
2023-04-18T21:27:51.108Z,100435.59
2023-04-18T21:30:18.386Z,100429.63
2023-04-18T21:32:46.154Z,100427.13
2023-04-18T21:35:20.141Z,100426.22
2023-04-18T21:37:47.925Z,100428.16
2023-04-18T21:40:14.847Z,100432.25
2023-04-18T21:42:41.578Z,100422.59
2023-04-18T21:45:10.008Z,100426.91
2023-04-18T21:47:36.579Z,100419.19
2023-04-18T21:50:04.040Z,100420.84
2023-04-18T21:52:30.671Z,100422.09
2023-04-18T21:54:57.336Z,100420.66
2023-04-18T21:57:24.084Z,100430.81
2023-04-18T21:59:50.859Z,100422.59
2023-04-18T22:02:17.754Z,100425.25
2023-04-18T22:04:47.165Z,100424.88
2023-04-18T22:07:14.291Z,100422.28
2023-04-18T22:09:41.066Z,100432.06
2023-04-18T22:12:08.065Z,100423.22
2023-04-18T22:14:34.673Z,100426.44
2023-04-18T22:17:02.226Z,100424.28
2023-04-18T22:19:32.434Z,100428.22
2023-04-18T22:21:59.101Z,100424.38
2023-04-18T22:24:25.681Z,100412.38
2023-04-18T22:26:53.201Z,100417.13
2023-04-18T22:29:19.853Z,100413.81
2023-04-18T22:31:46.492Z,100417.13
2023-04-18T22:34:13.192Z,100414.13
2023-04-18T22:36:39.964Z,100411.78
2023-04-18T22:39:06.481Z,100405.69
2023-04-18T22:41:34.695Z,100409.09
2023-04-18T22:44:04.005Z,100409.09
2023-04-18T22:46:30.708Z,100413.63
2023-04-18T22:48:58.605Z,100408.59
2023-04-18T22:51:25.201Z,100405.41
2023-04-18T22:53:51.705Z,100399.84
2023-04-18T22:56:18.278Z,100404.06
2023-04-18T22:58:44.850Z,100401.09
2023-04-18T23:01:13.801Z,100399.84
2023-04-18T23:03:40.490Z,100396.56
2023-04-18T23:06:07.999Z,100402.72
2023-04-18T23:08:34.570Z,100399.47
2023-04-18T23:11:01.259Z,100392.84
2023-04-18T23:13:30.529Z,100381.72
2023-04-18T23:15:57.189Z,100376.19
2023-04-18T23:18:26.669Z,100384.22
2023-04-18T23:20:53.244Z,100378.06
2023-04-18T23:23:19.818Z,100376.81
2023-04-18T23:25:46.649Z,100375.06
2023-04-18T23:28:16.716Z,100373.75
2023-04-18T23:30:43.343Z,100370.75
2023-04-18T23:33:10.066Z,100373.03
2023-04-18T23:35:39.324Z,100368.38
2023-04-18T23:38:05.886Z,100359.84
2023-04-18T23:40:32.380Z,100356.56
2023-04-18T23:43:01.393Z,100359.13
2023-04-18T23:45:28.260Z,100349.19
2023-04-18T23:47:54.965Z,100349.28
2023-04-18T23:50:21.685Z,100348.66
2023-04-18T23:52:54.169Z,100344.75
2023-04-18T23:55:20.744Z,100342.06
2023-04-18T23:57:47.333Z,100339.19
